»·PEaware :: N64TZ L52-L88

N64TZ :: L52-L88

FLIGHT INFORMATION

Flight Status: Arrived
Operator: Privately registered:
United States
More flights under this callsign
Pilot: Marc G. (29709)
Aircraft: PIPER PA-28 CHEROKEE ARCHER
(PA28)
More flights by this aircraft type
Origin: L52 Oceano Co
United States
Destination: L88 New Cuyama
United States
More flights between these airports :: More routes between these airports
Route: WYNNR
File this flight plan on PilotEdge
Remarks:
Altitude:
(Current/Filed)
5,500ft
Speed:
(Current/Filed)
115kts
Departed: 17-Aug-20 06:31 PM
Arrived: 17-Aug-20 07:01 PM
Distance/Time
Traveled:
47nm/0:29
Distance/Time
To Go:
Arrived

Flight Plot

Page will automatically refresh every two minutes.


Map Options




Map Legend


Flown Route
Filed Route
Departure Airport
Arrival Airport
Navaid (VOR, NDB)
Fix

Horizontal Profiles

Position Reports

Time Latitude Longitude Heading Altitude Ground
Speed
17-Aug-20 18:24 35.103435 -120.625219 213 15ft 0kts
17-Aug-20 18:25 35.103435 -120.625219 213 15ft 0kts
17-Aug-20 18:26 35.103435 -120.625219 213 15ft 0kts
17-Aug-20 18:27 35.103434 -120.625220 213 15ft 0kts
17-Aug-20 18:28 35.103434 -120.625220 213 15ft 0kts
17-Aug-20 18:29 35.103435 -120.625219 213 15ft 0kts
17-Aug-20 18:30 35.102025 -120.623203 123 16ft 62kts
17-Aug-20 18:31 35.096957 -120.599923 72 965ft 82kts
17-Aug-20 18:32 35.098446 -120.570586 88 1987ft 85kts
17-Aug-20 18:33 35.099969 -120.542907 84 2983ft 82kts
17-Aug-20 18:34 35.102426 -120.513927 87 3769ft 97kts
17-Aug-20 18:35 35.105749 -120.481193 79 4580ft 98kts
17-Aug-20 18:36 35.106416 -120.443667 89 5052ft 113kts
17-Aug-20 18:37 35.108115 -120.404034 86 5499ft 122kts
17-Aug-20 18:38 35.109787 -120.361523 85 5797ft 126kts
17-Aug-20 18:39 35.105606 -120.316949 105 5710ft 142kts
17-Aug-20 18:40 35.092571 -120.274130 116 5896ft 134kts
17-Aug-20 18:41 35.077264 -120.231262 106 5779ft 142kts
17-Aug-20 18:42 35.065860 -120.185061 105 5665ft 139kts
17-Aug-20 18:43 35.052730 -120.140183 111 5610ft 138kts
17-Aug-20 18:44 35.043831 -120.099789 105 5594ft 139kts
17-Aug-20 18:45 35.031089 -120.055447 113 5582ft 138kts
17-Aug-20 18:46 35.016968 -120.011912 111 5565ft 138kts
17-Aug-20 18:47 35.003330 -119.968213 109 5568ft 138kts
17-Aug-20 18:48 34.990818 -119.924261 109 5568ft 138kts
17-Aug-20 18:49 34.978202 -119.879916 109 5568ft 138kts
17-Aug-20 18:50 34.964864 -119.835141 114 5081ft 155kts
17-Aug-20 18:51 34.955262 -119.789663 103 4160ft 123kts
17-Aug-20 18:52 34.947662 -119.751150 99 3514ft 111kts
17-Aug-20 18:53 34.939991 -119.717624 119 3264ft 94kts
17-Aug-20 18:54 34.926187 -119.690864 131 3209ft 95kts
17-Aug-20 18:55 34.912485 -119.665620 114 3383ft 79kts
17-Aug-20 18:56 34.902905 -119.643134 82 3479ft 72kts
17-Aug-20 18:57 34.920125 -119.637609 311 3153ft 72kts
17-Aug-20 18:58 34.929331 -119.659503 294 2566ft 69kts
17-Aug-20 18:59 34.937602 -119.679891 297 2208ft 59kts
17-Aug-20 19:00 34.941842 -119.690224 299 2160ft 24kts
17-Aug-20 19:01 34.943153 -119.690957 44 2156ft 0kts
17-Aug-20 19:02 34.943153 -119.690957 44 2156ft 0kts
17-Aug-20 19:03 34.943153 -119.690957 44 2156ft 0kts
17-Aug-20 19:04 34.943153 -119.690957 44 2156ft 0kts
17-Aug-20 19:05 34.943153 -119.690957 44 2156ft 0kts
17-Aug-20 19:06 34.943153 -119.690957 44 2156ft 0kts
17-Aug-20 19:07 34.943153 -119.690957 44 2156ft 0kts
17-Aug-20 19:08 34.943153 -119.690957 44 2156ft 0kts
17-Aug-20 19:09 34.943153 -119.690957 44 2156ft 0kts
17-Aug-20 19:10 34.943153 -119.690957 44 2156ft 0kts
17-Aug-20 19:11 34.943153 -119.690957 44 2156ft 0kts
17-Aug-20 19:12 34.943923 -119.690795 202 2155ft 0kts
17-Aug-20 19:13 34.943923 -119.690795 202 2155ft 0kts

Navigation Log

Ident Type
Flight plan parsing failed, navigation log unavailable